createdAt,value
2018-07-21T00:00:21.099Z,0.00
2018-07-21T00:01:21.104Z,0.00
2018-07-21T00:02:21.118Z,0.00
2018-07-21T00:03:21.063Z,0.00
2018-07-21T00:04:21.056Z,0.00
2018-07-21T00:05:21.043Z,0.00
2018-07-21T00:06:21.049Z,0.00
2018-07-21T00:07:21.019Z,0.00
2018-07-21T00:08:21.009Z,0.00
2018-07-21T00:09:20.998Z,0.00
2018-07-21T00:10:20.989Z,0.00
2018-07-21T00:11:21.000Z,0.00
2018-07-21T00:12:20.974Z,0.00
2018-07-21T00:13:20.958Z,0.00
2018-07-21T00:14:20.951Z,0.00
2018-07-21T00:15:20.932Z,0.00
2018-07-21T00:16:20.942Z,0.00
2018-07-21T00:17:20.916Z,0.00
2018-07-21T00:18:20.905Z,0.00
2018-07-21T00:19:20.896Z,0.00
2018-07-21T00:20:20.879Z,0.00
2018-07-21T00:21:20.889Z,0.00
2018-07-21T00:22:20.862Z,0.00
2018-07-21T00:23:20.861Z,0.00
2018-07-21T00:24:20.843Z,0.00
2018-07-21T00:25:20.832Z,0.00
2018-07-21T00:26:20.836Z,0.00
2018-07-21T00:27:20.804Z,0.00
2018-07-21T00:28:20.795Z,0.00
2018-07-21T00:29:20.816Z,0.00
2018-07-21T00:30:20.777Z,0.00
2018-07-21T00:31:20.800Z,0.00
2018-07-21T00:32:20.761Z,0.00
2018-07-21T00:33:20.746Z,0.00
2018-07-21T00:34:20.732Z,0.00
2018-07-21T00:35:20.719Z,0.00
2018-07-21T00:36:20.738Z,0.00
2018-07-21T00:37:20.705Z,0.00
2018-07-21T00:38:20.691Z,0.00
2018-07-21T00:39:20.676Z,0.00
2018-07-21T00:40:20.666Z,0.00
2018-07-21T00:41:20.686Z,0.00
2018-07-21T00:42:20.649Z,0.00
2018-07-21T00:43:20.643Z,0.00
2018-07-21T00:44:20.635Z,0.00
2018-07-21T00:45:20.617Z,0.00
2018-07-21T00:46:20.624Z,0.00
2018-07-21T00:47:20.592Z,0.00
2018-07-21T00:48:20.581Z,0.00
2018-07-21T00:49:20.572Z,0.00
2018-07-21T00:50:20.565Z,0.00
2018-07-21T00:51:20.582Z,0.00
2018-07-21T00:52:20.541Z,0.00
2018-07-21T00:53:20.530Z,0.00
2018-07-21T00:54:20.524Z,0.00
2018-07-21T00:55:20.516Z,0.00
2018-07-21T00:56:20.521Z,0.00
2018-07-21T00:57:20.556Z,0.00
2018-07-21T00:58:20.477Z,0.00
2018-07-21T00:59:20.464Z,0.00
2018-07-21T01:00:20.461Z,0.00
2018-07-21T01:01:20.464Z,0.00
2018-07-21T01:02:20.455Z,0.00
2018-07-21T01:03:20.435Z,0.00
2018-07-21T01:04:20.433Z,0.00
2018-07-21T01:05:27.305Z,0.00
2018-07-21T01:06:20.415Z,0.00
2018-07-21T01:07:20.384Z,0.00
2018-07-21T01:08:20.390Z,0.00
2018-07-21T01:09:20.357Z,0.00
2018-07-21T01:10:20.362Z,0.00
2018-07-21T01:11:20.343Z,0.00
2018-07-21T01:12:20.330Z,0.00
2018-07-21T01:13:20.350Z,0.00
2018-07-21T01:14:20.304Z,0.00
2018-07-21T01:15:20.296Z,0.00
2018-07-21T01:16:20.297Z,0.00
2018-07-21T01:17:20.272Z,0.00
2018-07-21T01:18:20.299Z,0.00
2018-07-21T01:19:20.280Z,0.00
2018-07-21T01:20:20.245Z,0.00
2018-07-21T01:21:20.236Z,0.00
2018-07-21T01:22:20.219Z,0.00
2018-07-21T01:23:20.210Z,0.00
2018-07-21T01:24:20.228Z,0.00
2018-07-21T01:25:20.193Z,0.00
2018-07-21T01:26:20.176Z,0.00
2018-07-21T01:27:20.168Z,0.00
2018-07-21T01:28:20.158Z,0.00
2018-07-21T01:29:20.173Z,0.00
2018-07-21T01:30:20.141Z,0.00
2018-07-21T01:31:20.133Z,0.00
2018-07-21T01:32:20.119Z,0.00
2018-07-21T01:33:20.109Z,0.00
2018-07-21T01:34:20.091Z,0.00
2018-07-21T01:35:20.110Z,0.00
2018-07-21T01:36:20.072Z,0.00
2018-07-21T01:37:20.058Z,0.00
2018-07-21T01:38:20.071Z,0.00
2018-07-21T01:39:20.049Z,0.00
2018-07-21T01:40:20.029Z,0.00
2018-07-21T01:41:20.037Z,0.00
2018-07-21T01:42:20.012Z,0.00
2018-07-21T01:43:19.999Z,0.00
2018-07-21T01:44:19.987Z,0.00
2018-07-21T01:45:19.980Z,0.00
2018-07-21T01:46:20.000Z,0.00
2018-07-21T01:47:19.958Z,0.00
2018-07-21T01:48:19.961Z,0.00
2018-07-21T01:49:19.929Z,0.00
2018-07-21T01:50:19.926Z,0.00
2018-07-21T01:51:19.931Z,0.00
2018-07-21T01:52:19.903Z,0.00
2018-07-21T01:53:19.892Z,0.00
2018-07-21T01:54:19.878Z,0.00
2018-07-21T01:55:19.867Z,0.00
2018-07-21T01:56:19.888Z,0.00
2018-07-21T01:57:19.849Z,0.00
2018-07-21T01:58:19.832Z,0.00
2018-07-21T01:59:19.824Z,0.00
2018-07-21T02:00:19.814Z,0.00
2018-07-21T02:01:19.803Z,0.00
2018-07-21T02:02:19.824Z,0.00
2018-07-21T02:03:19.783Z,0.00
2018-07-21T02:04:19.774Z,0.00
2018-07-21T02:05:19.771Z,0.00
2018-07-21T02:06:19.747Z,0.00
2018-07-21T02:07:19.769Z,0.00
2018-07-21T02:08:19.729Z,0.00
2018-07-21T02:09:19.745Z,0.00
2018-07-21T02:10:19.714Z,0.00
2018-07-21T02:11:19.699Z,0.00
2018-07-21T02:12:19.713Z,0.00
2018-07-21T02:13:19.675Z,0.00
2018-07-21T02:14:19.669Z,0.00
2018-07-21T02:15:19.683Z,0.00
2018-07-21T02:16:19.653Z,0.00
2018-07-21T02:17:19.641Z,0.00
2018-07-21T02:18:19.647Z,0.00
2018-07-21T02:19:19.610Z,0.00
2018-07-21T02:20:19.607Z,0.00
2018-07-21T02:21:19.591Z,0.00
2018-07-21T02:22:19.583Z,0.00
2018-07-21T02:23:19.589Z,0.00
2018-07-21T02:24:19.561Z,0.00
2018-07-21T02:25:19.562Z,0.00
2018-07-21T02:26:19.539Z,0.00
2018-07-21T02:27:19.525Z,0.00
2018-07-21T02:28:19.537Z,0.00
2018-07-21T02:29:19.507Z,0.00
2018-07-21T02:30:19.490Z,0.00
2018-07-21T02:31:19.483Z,0.00
2018-07-21T02:32:19.472Z,0.00
2018-07-21T02:33:19.478Z,0.00
2018-07-21T02:34:19.454Z,0.00
2018-07-21T02:35:19.441Z,0.00
2018-07-21T02:36:19.436Z,0.00
2018-07-21T02:37:19.423Z,0.00
2018-07-21T02:38:19.430Z,0.00
2018-07-21T02:39:19.397Z,0.00
2018-07-21T02:40:19.386Z,0.00
2018-07-21T02:41:19.373Z,0.00
2018-07-21T02:42:19.368Z,0.00
2018-07-21T02:43:19.356Z,0.00
2018-07-21T02:44:19.364Z,0.00
2018-07-21T02:45:19.332Z,0.00
2018-07-21T02:46:19.325Z,0.00
2018-07-21T02:47:19.312Z,0.00
2018-07-21T02:48:19.303Z,0.00
2018-07-21T02:49:19.311Z,0.00
2018-07-21T02:50:19.275Z,0.00
2018-07-21T02:51:19.267Z,0.00
2018-07-21T02:52:19.255Z,0.00
2018-07-21T02:53:19.245Z,0.00
2018-07-21T02:54:19.280Z,0.00
2018-07-21T02:55:19.229Z,0.00
2018-07-21T02:56:19.215Z,0.00
2018-07-21T02:57:19.206Z,0.00
2018-07-21T02:58:19.188Z,0.00
2018-07-21T02:59:19.206Z,0.00
2018-07-21T03:00:19.172Z,0.00
2018-07-21T03:01:19.204Z,0.00
2018-07-21T03:02:19.145Z,0.00
2018-07-21T03:03:19.136Z,0.00
2018-07-21T03:04:19.129Z,0.00
2018-07-21T03:05:19.133Z,0.00
2018-07-21T03:06:19.118Z,0.00
2018-07-21T03:07:19.096Z,0.00
2018-07-21T03:08:19.085Z,0.00
2018-07-21T03:09:19.076Z,0.00
2018-07-21T03:10:19.077Z,0.00
2018-07-21T03:11:19.049Z,0.00
2018-07-21T03:12:19.045Z,0.00
2018-07-21T03:13:19.028Z,0.00
2018-07-21T03:14:19.026Z,0.00
2018-07-21T03:15:19.032Z,0.00
2018-07-21T03:16:18.998Z,0.00
2018-07-21T03:17:18.987Z,0.00
2018-07-21T03:18:18.979Z,0.00
2018-07-21T03:19:18.967Z,0.00
2018-07-21T03:20:18.974Z,0.00
2018-07-21T03:21:18.946Z,0.00
2018-07-21T03:22:18.929Z,0.00
2018-07-21T03:23:18.974Z,0.00
2018-07-21T03:24:18.928Z,0.00
2018-07-21T03:25:18.928Z,0.00
2018-07-21T03:26:18.885Z,0.00
2018-07-21T03:27:18.883Z,0.00
2018-07-21T03:28:18.896Z,0.00
2018-07-21T03:29:18.853Z,5.62
2018-07-21T03:30:18.868Z,5.62
2018-07-21T03:31:18.862Z,5.62
2018-07-21T03:32:18.852Z,5.62
2018-07-21T03:33:18.859Z,5.62
2018-07-21T03:34:18.805Z,5.62
2018-07-21T03:35:18.813Z,5.62
2018-07-21T03:36:18.790Z,5.62
2018-07-21T03:37:18.777Z,5.62
2018-07-21T03:38:18.756Z,5.62
2018-07-21T03:39:18.751Z,11.25
2018-07-21T03:40:18.768Z,11.25
2018-07-21T03:41:18.731Z,11.25
2018-07-21T03:42:18.729Z,11.25
2018-07-21T03:43:18.706Z,11.25
2018-07-21T03:44:18.704Z,11.25
2018-07-21T03:45:18.706Z,11.25
2018-07-21T03:46:18.689Z,16.88
2018-07-21T03:47:18.661Z,16.88
2018-07-21T03:48:18.654Z,16.88
2018-07-21T03:49:18.644Z,16.88
2018-07-21T03:50:18.647Z,16.88
2018-07-21T03:51:18.620Z,22.50
2018-07-21T03:52:18.615Z,22.50
2018-07-21T03:53:18.594Z,22.50
2018-07-21T03:54:18.591Z,22.50
2018-07-21T03:55:18.598Z,28.12
2018-07-21T03:56:18.577Z,28.12
2018-07-21T03:57:18.568Z,28.12
2018-07-21T03:58:18.545Z,28.12
2018-07-21T03:59:18.532Z,33.75
2018-07-21T04:00:18.541Z,33.75
2018-07-21T04:01:18.508Z,33.75
2018-07-21T04:02:18.505Z,33.75
2018-07-21T04:03:18.494Z,39.38
2018-07-21T04:04:18.479Z,39.38
2018-07-21T04:05:18.488Z,39.38
2018-07-21T04:06:18.461Z,39.38
2018-07-21T04:07:18.449Z,39.38
2018-07-21T04:08:18.437Z,39.38
2018-07-21T04:09:18.430Z,39.38
2018-07-21T04:10:18.440Z,45.00
2018-07-21T04:11:18.420Z,45.00
2018-07-21T04:12:18.394Z,45.00
2018-07-21T04:13:18.379Z,50.62
2018-07-21T04:14:18.377Z,50.62
2018-07-21T04:15:18.372Z,50.62
2018-07-21T04:16:18.384Z,56.25
2018-07-21T04:17:18.361Z,56.25
2018-07-21T04:18:18.331Z,56.25
2018-07-21T04:19:18.388Z,56.25
2018-07-21T04:20:18.309Z,61.88
2018-07-21T04:21:18.364Z,61.88
2018-07-21T04:22:18.283Z,61.88
2018-07-21T04:23:18.277Z,61.88
2018-07-21T04:24:18.290Z,67.50
2018-07-21T04:25:18.251Z,67.50
2018-07-21T04:26:18.265Z,67.50
2018-07-21T04:27:18.233Z,67.50
2018-07-21T04:28:18.223Z,73.12
2018-07-21T04:29:18.217Z,73.12
2018-07-21T04:30:18.207Z,73.12
2018-07-21T04:31:18.217Z,78.75
2018-07-21T04:32:18.181Z,78.75
2018-07-21T04:33:18.182Z,78.75
2018-07-21T04:34:18.180Z,78.75
2018-07-21T04:35:18.147Z,78.75
2018-07-21T04:36:18.153Z,78.75
2018-07-21T04:37:18.122Z,78.75
2018-07-21T04:38:18.146Z,78.75
2018-07-21T04:39:18.108Z,78.75
2018-07-21T04:40:18.094Z,78.75
2018-07-21T04:41:18.108Z,78.75
2018-07-21T04:42:18.087Z,78.75
2018-07-21T04:43:18.059Z,73.12
2018-07-21T04:44:18.051Z,73.12
2018-07-21T04:45:18.053Z,73.12
2018-07-21T04:46:18.075Z,73.12
2018-07-21T04:47:18.018Z,78.75
2018-07-21T04:48:18.011Z,78.75
2018-07-21T04:49:18.018Z,78.75
2018-07-21T04:50:17.983Z,78.75
2018-07-21T04:51:17.992Z,78.75
2018-07-21T04:52:17.964Z,84.38
2018-07-21T04:53:17.973Z,84.38
2018-07-21T04:54:17.937Z,90.00
2018-07-21T04:55:17.930Z,90.00
2018-07-21T04:56:17.937Z,90.00
2018-07-21T04:57:17.925Z,90.00
2018-07-21T04:58:17.920Z,90.00
2018-07-21T04:59:17.888Z,90.00
2018-07-21T05:00:17.888Z,90.00
2018-07-21T05:01:17.925Z,90.00
2018-07-21T05:02:17.851Z,90.00
2018-07-21T05:03:17.843Z,90.00
2018-07-21T05:04:17.832Z,90.00
2018-07-21T05:05:17.828Z,90.00
2018-07-21T05:06:17.850Z,90.00
2018-07-21T05:07:17.881Z,90.00
2018-07-21T05:08:17.790Z,90.00
2018-07-21T05:09:17.775Z,90.00
2018-07-21T05:10:17.771Z,95.62
2018-07-21T05:11:17.801Z,95.62
2018-07-21T05:12:17.756Z,95.62
2018-07-21T05:13:17.739Z,95.62
2018-07-21T05:14:17.721Z,101.25
2018-07-21T05:15:17.717Z,101.25
2018-07-21T05:16:17.727Z,106.88
2018-07-21T05:17:17.688Z,112.50
2018-07-21T05:18:17.685Z,118.12
2018-07-21T05:19:17.676Z,118.12
2018-07-21T05:20:17.669Z,118.12
2018-07-21T05:21:17.678Z,118.12
2018-07-21T05:22:17.644Z,118.12
2018-07-21T05:23:17.626Z,118.12
2018-07-21T05:24:17.627Z,118.12
2018-07-21T05:25:17.609Z,112.50
2018-07-21T05:26:17.612Z,112.50
2018-07-21T05:27:17.589Z,118.12
2018-07-21T05:28:17.572Z,118.12
2018-07-21T05:29:17.559Z,118.12
2018-07-21T05:30:17.561Z,118.12
2018-07-21T05:31:17.569Z,123.75
2018-07-21T05:32:17.532Z,123.75
2018-07-21T05:33:17.523Z,123.75
2018-07-21T05:34:17.516Z,123.75
2018-07-21T05:35:17.496Z,129.38
2018-07-21T05:36:17.531Z,129.38
2018-07-21T05:37:17.473Z,135.00
2018-07-21T05:38:17.473Z,140.62
2018-07-21T05:39:17.490Z,140.62
2018-07-21T05:40:17.477Z,140.62
2018-07-21T05:41:17.449Z,135.00
2018-07-21T05:42:17.436Z,135.00
2018-07-21T05:43:17.419Z,135.00
2018-07-21T05:44:17.404Z,135.00
2018-07-21T05:45:17.393Z,140.62
2018-07-21T05:46:17.394Z,146.25
2018-07-21T05:47:17.369Z,151.88
2018-07-21T05:48:17.356Z,157.50
2018-07-21T05:49:17.356Z,163.12
2018-07-21T05:50:17.366Z,174.38
2018-07-21T05:51:17.349Z,180.00
2018-07-21T05:52:17.342Z,185.62
2018-07-21T05:53:17.401Z,185.62
2018-07-21T05:54:17.293Z,191.25
2018-07-21T05:55:17.282Z,185.62
2018-07-21T05:56:17.295Z,185.62
2018-07-21T05:57:17.266Z,180.00
2018-07-21T05:58:17.244Z,174.38
2018-07-21T05:59:17.237Z,168.75
2018-07-21T06:00:17.226Z,163.12
2018-07-21T06:01:17.233Z,157.50
2018-07-21T06:02:17.223Z,151.88
2018-07-21T06:03:17.202Z,151.88
2018-07-21T06:04:17.185Z,151.88
2018-07-21T06:05:17.176Z,146.25
2018-07-21T06:06:17.177Z,146.25
2018-07-21T06:07:17.150Z,146.25
2018-07-21T06:08:17.149Z,146.25
2018-07-21T06:09:17.126Z,151.88
2018-07-21T06:10:17.121Z,151.88
2018-07-21T06:11:17.138Z,151.88
2018-07-21T06:12:17.108Z,151.88
2018-07-21T06:13:17.084Z,146.25
2018-07-21T06:14:17.084Z,146.25
2018-07-21T06:15:17.067Z,146.25
2018-07-21T06:16:17.074Z,151.88
2018-07-21T06:17:17.050Z,151.88
2018-07-21T06:18:17.033Z,163.12
2018-07-21T06:19:17.022Z,163.12
2018-07-21T06:20:17.015Z,174.38
2018-07-21T06:21:17.027Z,180.00
2018-07-21T06:22:16.991Z,191.25
2018-07-21T06:23:16.978Z,208.12
2018-07-21T06:24:16.987Z,225.00
2018-07-21T06:25:17.006Z,236.25
2018-07-21T06:26:16.945Z,241.88
2018-07-21T06:27:16.954Z,258.75
2018-07-21T06:28:16.925Z,281.25
2018-07-21T06:29:16.915Z,303.75
2018-07-21T06:30:16.905Z,326.25
2018-07-21T06:31:16.908Z,343.12
2018-07-21T06:32:16.913Z,360.00
2018-07-21T06:33:16.882Z,376.88
2018-07-21T06:34:16.862Z,393.75
2018-07-21T06:35:16.873Z,399.38
2018-07-21T06:36:16.879Z,399.38
2018-07-21T06:37:16.889Z,399.38
2018-07-21T06:38:16.816Z,399.38
2018-07-21T06:39:16.853Z,399.38
2018-07-21T06:40:16.795Z,405.00
2018-07-21T06:41:16.789Z,399.38
2018-07-21T06:42:16.795Z,382.50
2018-07-21T06:43:16.870Z,360.00
2018-07-21T06:44:16.756Z,348.75
2018-07-21T06:45:16.771Z,343.12
2018-07-21T06:46:16.737Z,343.12
2018-07-21T06:47:16.760Z,348.75
2018-07-21T06:48:16.712Z,360.00
2018-07-21T06:49:16.699Z,365.62
2018-07-21T06:50:16.681Z,365.62
2018-07-21T06:51:16.674Z,371.25
2018-07-21T06:52:16.682Z,376.88
2018-07-21T06:53:16.658Z,376.88
2018-07-21T06:54:16.662Z,382.50
2018-07-21T06:55:16.632Z,388.12
2018-07-21T06:56:16.635Z,393.75
2018-07-21T06:57:16.631Z,393.75
2018-07-21T06:58:16.603Z,393.75
2018-07-21T06:59:16.635Z,405.00
2018-07-21T07:00:16.575Z,405.00
2018-07-21T07:01:16.568Z,405.00
2018-07-21T07:02:16.569Z,410.62
2018-07-21T07:03:16.550Z,421.88
2018-07-21T07:04:16.537Z,433.12
2018-07-21T07:05:16.522Z,438.75
2018-07-21T07:06:16.538Z,450.00
2018-07-21T07:07:16.526Z,455.62
2018-07-21T07:08:16.497Z,466.88
2018-07-21T07:09:16.481Z,466.88
2018-07-21T07:10:16.537Z,466.88
2018-07-21T07:11:16.455Z,461.25
2018-07-21T07:12:16.463Z,466.88
2018-07-21T07:13:16.431Z,466.88
2018-07-21T07:14:16.431Z,472.50
2018-07-21T07:15:16.415Z,489.38
2018-07-21T07:16:16.421Z,500.62
2018-07-21T07:17:16.416Z,517.50
2018-07-21T07:18:16.393Z,545.62
2018-07-21T07:19:16.371Z,568.12
2018-07-21T07:20:16.360Z,601.88
2018-07-21T07:21:16.381Z,624.38
2018-07-21T07:22:16.334Z,646.88
2018-07-21T07:23:16.336Z,669.38
2018-07-21T07:24:16.315Z,697.50
2018-07-21T07:25:16.354Z,708.75
2018-07-21T07:26:16.353Z,714.38
2018-07-21T07:27:16.339Z,708.75
2018-07-21T07:28:16.275Z,691.88
2018-07-21T07:29:16.268Z,680.62
2018-07-21T07:30:16.250Z,675.00
2018-07-21T07:31:16.246Z,675.00
2018-07-21T07:32:16.259Z,669.38
2018-07-21T07:33:16.224Z,669.38
2018-07-21T07:34:16.209Z,675.00
2018-07-21T07:35:16.273Z,669.38
2018-07-21T07:36:16.186Z,675.00
2018-07-21T07:37:16.198Z,680.62
2018-07-21T07:38:16.180Z,691.88
2018-07-21T07:39:16.158Z,703.12
2018-07-21T07:40:16.155Z,714.38
2018-07-21T07:41:16.152Z,720.00
2018-07-21T07:42:16.234Z,725.62
2018-07-21T07:43:16.110Z,731.25
2018-07-21T07:44:16.106Z,731.25
2018-07-21T07:45:16.091Z,725.62
2018-07-21T07:46:16.091Z,725.62
2018-07-21T07:47:16.098Z,714.38
2018-07-21T07:48:16.084Z,708.75
2018-07-21T07:49:16.053Z,697.50
2018-07-21T07:50:16.052Z,691.88
2018-07-21T07:51:16.036Z,686.25
2018-07-21T07:52:16.046Z,680.62
2018-07-21T07:53:16.012Z,686.25
2018-07-21T07:54:15.999Z,686.25
2018-07-21T07:55:15.988Z,691.88
2018-07-21T07:56:15.975Z,686.25
2018-07-21T07:57:15.986Z,680.62
2018-07-21T07:58:15.959Z,669.38
2018-07-21T07:59:15.955Z,658.12
2018-07-21T08:00:15.942Z,652.50
2018-07-21T08:01:16.003Z,646.88
2018-07-21T08:02:15.943Z,641.25
2018-07-21T08:03:15.902Z,635.62
2018-07-21T08:04:15.905Z,630.00
2018-07-21T08:05:15.887Z,630.00
2018-07-21T08:06:15.885Z,630.00
2018-07-21T08:07:15.882Z,635.62
2018-07-21T08:08:15.857Z,646.88
2018-07-21T08:09:15.855Z,658.12
2018-07-21T08:10:15.834Z,669.38
2018-07-21T08:11:15.827Z,686.25
2018-07-21T08:12:15.842Z,697.50
2018-07-21T08:13:15.824Z,708.75
2018-07-21T08:14:15.817Z,714.38
2018-07-21T08:15:15.782Z,720.00
2018-07-21T08:16:15.770Z,720.00
2018-07-21T08:17:15.777Z,720.00
2018-07-21T08:18:15.766Z,720.00
2018-07-21T08:19:15.743Z,725.62
2018-07-21T08:20:15.732Z,725.62
2018-07-21T08:21:15.717Z,731.25
2018-07-21T08:22:15.729Z,736.88
2018-07-21T08:23:15.703Z,753.75
2018-07-21T08:24:15.695Z,759.38
2018-07-21T08:25:15.674Z,753.75
2018-07-21T08:26:15.665Z,753.75
2018-07-21T08:27:15.668Z,759.38
2018-07-21T08:28:15.642Z,770.62
2018-07-21T08:29:15.637Z,793.12
2018-07-21T08:30:15.637Z,855.00
2018-07-21T08:31:15.611Z,1040.62
2018-07-21T08:32:15.618Z,900.00
2018-07-21T08:33:15.596Z,877.50
2018-07-21T08:34:15.578Z,933.75
2018-07-21T08:35:15.567Z,995.62
2018-07-21T08:36:15.559Z,1012.50
2018-07-21T08:37:15.566Z,990.00
2018-07-21T08:38:15.533Z,888.75
2018-07-21T08:39:15.521Z,843.75
2018-07-21T08:40:15.513Z,832.50
2018-07-21T08:41:15.504Z,871.88
2018-07-21T08:42:15.513Z,877.50
2018-07-21T08:43:15.491Z,826.88
2018-07-21T08:44:15.480Z,843.75
2018-07-21T08:45:15.463Z,877.50
2018-07-21T08:46:15.450Z,838.12
2018-07-21T08:47:15.462Z,804.38
2018-07-21T08:48:15.428Z,776.25
2018-07-21T08:49:15.422Z,753.75
2018-07-21T08:50:15.432Z,731.25
2018-07-21T08:51:15.418Z,708.75
2018-07-21T08:52:15.403Z,697.50
2018-07-21T08:53:15.376Z,686.25
2018-07-21T08:54:15.368Z,680.62
2018-07-21T08:55:15.361Z,675.00
2018-07-21T08:56:15.365Z,669.38
2018-07-21T08:57:15.360Z,669.38
2018-07-21T08:58:15.325Z,669.38
2018-07-21T08:59:15.312Z,669.38
2018-07-21T09:00:15.308Z,680.62
2018-07-21T09:01:15.325Z,697.50
2018-07-21T09:02:15.347Z,714.38
2018-07-21T09:03:15.325Z,725.62
2018-07-21T09:04:15.265Z,731.25
2018-07-21T09:05:15.252Z,736.88
2018-07-21T09:06:15.242Z,731.25
2018-07-21T09:07:15.246Z,742.50
2018-07-21T09:08:15.225Z,759.38
2018-07-21T09:09:15.229Z,883.12
2018-07-21T09:10:15.199Z,1001.25
2018-07-21T09:11:15.198Z,1220.62
2018-07-21T09:12:15.205Z,1046.25
2018-07-21T09:13:15.313Z,1018.12
2018-07-21T09:14:15.159Z,967.50
2018-07-21T09:15:15.156Z,911.25
2018-07-21T09:16:15.140Z,956.25
2018-07-21T09:17:15.145Z,1215.00
2018-07-21T09:18:15.115Z,1271.25
2018-07-21T09:19:15.104Z,1310.62
2018-07-21T09:20:15.100Z,1299.38
2018-07-21T09:21:15.083Z,1063.12
2018-07-21T09:22:15.103Z,990.00
2018-07-21T09:23:15.067Z,1040.62
2018-07-21T09:24:15.050Z,1215.00
2018-07-21T09:25:15.042Z,978.75
2018-07-21T09:26:15.042Z,1074.38
2018-07-21T09:27:15.030Z,1130.62
2018-07-21T09:28:15.100Z,1203.75
2018-07-21T09:29:15.002Z,1181.25
2018-07-21T09:30:15.000Z,1018.12
2018-07-21T09:31:14.977Z,1096.88
2018-07-21T09:32:14.965Z,1147.50
2018-07-21T09:33:14.979Z,1147.50
2018-07-21T09:34:14.955Z,1141.88
2018-07-21T09:35:14.952Z,1130.62
2018-07-21T09:36:14.932Z,1108.12
2018-07-21T09:37:14.917Z,1096.88
2018-07-21T09:38:14.924Z,1125.00
2018-07-21T09:39:14.899Z,1158.75
2018-07-21T09:40:14.892Z,1158.75
2018-07-21T09:41:14.886Z,1147.50
2018-07-21T09:42:14.865Z,1153.12
2018-07-21T09:43:14.907Z,1136.25
2018-07-21T09:44:14.840Z,1141.88
2018-07-21T09:45:14.843Z,1147.50
2018-07-21T09:46:14.854Z,1119.38
2018-07-21T09:47:14.842Z,1102.50
2018-07-21T09:48:14.816Z,1091.25
2018-07-21T09:49:14.886Z,1091.25
2018-07-21T09:50:14.815Z,1102.50
2018-07-21T09:51:14.769Z,1141.88
2018-07-21T09:52:14.766Z,1181.25
2018-07-21T09:53:14.752Z,1260.00
2018-07-21T09:54:14.764Z,1338.75
2018-07-21T09:55:14.737Z,1389.38
2018-07-21T09:56:14.721Z,1406.25
2018-07-21T09:57:14.712Z,1350.00
2018-07-21T09:58:14.703Z,1248.75
2018-07-21T09:59:14.715Z,1136.25
2018-07-21T10:00:14.688Z,1051.88
2018-07-21T10:01:14.681Z,950.62
2018-07-21T10:02:14.663Z,894.38
2018-07-21T10:03:14.653Z,871.88
2018-07-21T10:04:14.670Z,905.62
2018-07-21T10:05:14.638Z,973.12
2018-07-21T10:06:14.622Z,1012.50
2018-07-21T10:07:14.622Z,1046.25
2018-07-21T10:08:14.605Z,1057.50
2018-07-21T10:09:14.595Z,1051.88
2018-07-21T10:10:14.609Z,1040.62
2018-07-21T10:11:14.567Z,1029.38
2018-07-21T10:12:14.564Z,1046.25
2018-07-21T10:13:14.553Z,1063.12
2018-07-21T10:14:14.545Z,1085.62
2018-07-21T10:15:14.560Z,1085.62
2018-07-21T10:16:14.526Z,1085.62
2018-07-21T10:17:14.512Z,1102.50
2018-07-21T10:18:14.504Z,1119.38
2018-07-21T10:19:14.493Z,1153.12
2018-07-21T10:20:14.503Z,1119.38
2018-07-21T10:21:14.471Z,1085.62
2018-07-21T10:22:14.534Z,1130.62
2018-07-21T10:23:14.451Z,1153.12
2018-07-21T10:24:14.436Z,1147.50
2018-07-21T10:25:14.448Z,1125.00
2018-07-21T10:26:14.422Z,1125.00
2018-07-21T10:27:14.414Z,1170.00
2018-07-21T10:28:14.527Z,1170.00
2018-07-21T10:29:14.395Z,1136.25
2018-07-21T10:30:14.475Z,1040.62
2018-07-21T10:31:14.372Z,1006.88
2018-07-21T10:32:14.366Z,945.00
2018-07-21T10:33:14.427Z,990.00
2018-07-21T10:34:14.336Z,1001.25
2018-07-21T10:35:14.425Z,990.00
2018-07-21T10:36:14.316Z,956.25
2018-07-21T10:37:14.312Z,928.12
2018-07-21T10:38:14.369Z,916.88
2018-07-21T10:39:14.298Z,911.25
2018-07-21T10:40:14.322Z,900.00
2018-07-21T10:41:14.271Z,877.50
2018-07-21T10:42:14.259Z,866.25
2018-07-21T10:43:14.243Z,855.00
2018-07-21T10:44:14.251Z,843.75
2018-07-21T10:45:14.253Z,826.88
2018-07-21T10:46:14.216Z,787.50
2018-07-21T10:47:14.205Z,781.88
2018-07-21T10:48:14.197Z,787.50
2018-07-21T10:49:14.188Z,815.62
2018-07-21T10:50:14.204Z,832.50
2018-07-21T10:51:14.168Z,821.25
2018-07-21T10:52:14.159Z,776.25
2018-07-21T10:53:14.156Z,810.00
2018-07-21T10:54:14.134Z,826.88
2018-07-21T10:55:14.140Z,821.25
2018-07-21T10:56:14.111Z,810.00
2018-07-21T10:57:14.102Z,798.75
2018-07-21T10:58:14.106Z,804.38
2018-07-21T10:59:14.087Z,804.38
2018-07-21T11:00:14.126Z,804.38
2018-07-21T11:01:14.063Z,815.62
2018-07-21T11:02:14.054Z,804.38
2018-07-21T11:03:14.047Z,798.75
2018-07-21T11:04:14.043Z,798.75
2018-07-21T11:05:14.044Z,798.75
2018-07-21T11:06:14.009Z,798.75
2018-07-21T11:07:13.996Z,804.38
2018-07-21T11:08:13.991Z,810.00
2018-07-21T11:09:13.981Z,815.62
2018-07-21T11:10:13.988Z,821.25
2018-07-21T11:11:13.960Z,832.50
2018-07-21T11:12:13.958Z,843.75
2018-07-21T11:13:13.940Z,866.25
2018-07-21T11:14:13.926Z,956.25
2018-07-21T11:15:14.057Z,1884.38
2018-07-21T11:16:13.909Z,3121.88
2018-07-21T11:17:13.897Z,3538.12
2018-07-21T11:18:13.885Z,3532.50
2018-07-21T11:19:13.878Z,2790.00
2018-07-21T11:20:13.902Z,2896.88
2018-07-21T11:21:13.861Z,3346.88
2018-07-21T11:22:13.849Z,3268.12
2018-07-21T11:23:13.843Z,3054.38
2018-07-21T11:24:13.831Z,2413.12
2018-07-21T11:25:13.863Z,1794.38
2018-07-21T11:26:13.809Z,1614.38
2018-07-21T11:27:13.821Z,1513.12
2018-07-21T11:28:13.787Z,2452.50
2018-07-21T11:29:13.779Z,1991.25
2018-07-21T11:30:13.794Z,2193.75
2018-07-21T11:31:13.765Z,1732.50
2018-07-21T11:32:13.756Z,1681.88
2018-07-21T11:33:13.743Z,1698.75
2018-07-21T11:34:13.739Z,1901.25
2018-07-21T11:35:13.803Z,2705.62
2018-07-21T11:36:13.927Z,1524.38
2018-07-21T11:37:13.720Z,1473.75
2018-07-21T11:38:13.695Z,1980.00
2018-07-21T11:39:13.684Z,1513.12
2018-07-21T11:40:13.712Z,1411.88
2018-07-21T11:41:13.685Z,1406.25
2018-07-21T11:42:13.675Z,1496.25
2018-07-21T11:43:13.651Z,1513.12
2018-07-21T11:44:13.649Z,1462.50
2018-07-21T11:45:13.657Z,1490.62
2018-07-21T11:46:13.626Z,1473.75
2018-07-21T11:47:13.604Z,1462.50
2018-07-21T11:48:13.603Z,1659.38
2018-07-21T11:49:13.603Z,3324.38
2018-07-21T11:50:13.599Z,2019.38
2018-07-21T11:51:13.565Z,1456.88
2018-07-21T11:52:13.558Z,1406.25
2018-07-21T11:53:13.549Z,1378.12
2018-07-21T11:54:13.542Z,1366.88
2018-07-21T11:55:13.580Z,1350.00
2018-07-21T11:56:13.522Z,1333.12
2018-07-21T11:57:13.520Z,1321.88
2018-07-21T11:58:13.497Z,1305.00
2018-07-21T11:59:13.548Z,1288.12
2018-07-21T12:00:13.506Z,1260.00
2018-07-21T12:01:13.483Z,1254.38
2018-07-21T12:02:13.466Z,1237.50
2018-07-21T12:03:13.453Z,1231.88
2018-07-21T12:04:13.443Z,1305.00
2018-07-21T12:05:13.447Z,1338.75
2018-07-21T12:06:13.431Z,1282.50
2018-07-21T12:07:13.415Z,1276.88
2018-07-21T12:08:13.407Z,1276.88
2018-07-21T12:09:13.397Z,1288.12
2018-07-21T12:10:13.399Z,1299.38
2018-07-21T12:11:13.376Z,1305.00
2018-07-21T12:12:13.365Z,1316.25
2018-07-21T12:13:13.358Z,1333.12
2018-07-21T12:14:13.366Z,1378.12
2018-07-21T12:15:13.364Z,1490.62
2018-07-21T12:16:13.348Z,1614.38
2018-07-21T12:17:13.343Z,1698.75
2018-07-21T12:18:13.301Z,1816.88
2018-07-21T12:19:13.297Z,2070.00
2018-07-21T12:20:13.320Z,1687.50
2018-07-21T12:21:13.280Z,1687.50
2018-07-21T12:22:13.262Z,1726.88
2018-07-21T12:23:13.260Z,1828.12
2018-07-21T12:24:13.263Z,2970.00
2018-07-21T12:25:13.258Z,2176.88
2018-07-21T12:26:13.232Z,2272.50
2018-07-21T12:27:13.220Z,2289.38
2018-07-21T12:28:13.209Z,3285.00
2018-07-21T12:29:13.202Z,2553.75
2018-07-21T12:30:13.221Z,3408.75
2018-07-21T12:31:13.179Z,3363.75
2018-07-21T12:32:13.170Z,4156.88
2018-07-21T12:33:13.165Z,3223.12
2018-07-21T12:34:13.211Z,4258.12
2018-07-21T12:35:13.163Z,4111.88
2018-07-21T12:36:13.137Z,3982.50
2018-07-21T12:37:13.129Z,3971.25
2018-07-21T12:38:13.123Z,3982.50
2018-07-21T12:39:13.124Z,4128.75
2018-07-21T12:40:13.163Z,3706.88